Time;durP1;ratioP1;P1;durP2;ratioP2;P2;SDS_P1;SDS_P2;PMS_P1;PMS_P2;Temp;Humidity;BMP_temperature;BMP_pressure;BME280_temperature;BME280_humidity;BME280_pressure;Samples;Min_cycle;Max_cycle;Signal;HPM_P1;HPM_P2
2022/05/12 00:01:36;;;;;;;3.72;1.60;;;18.30;60.40;;;;;;5091218;27;20498;-69
2022/05/12 00:04:02;;;;;;;3.75;1.80;;;18.20;60.60;;;;;;5086018;28;20810;-67
2022/05/12 00:06:29;;;;;;;3.07;1.80;;;18.20;61.10;;;;;;5091245;28;20488;-66
2022/05/12 00:08:57;;;;;;;3.80;1.42;;;18.20;61.60;;;;;;5087738;27;20418;-68
2022/05/12 00:11:24;;;;;;;4.00;1.90;;;18.20;62.00;;;;;;5083619;28;20524;-67
2022/05/12 00:13:50;;;;;;;3.65;1.63;;;18.10;62.60;;;;;;5083377;28;20901;-68
2022/05/12 00:16:17;;;;;;;4.70;1.90;;;17.90;63.40;;;;;;5089746;28;20894;-67
2022/05/12 00:18:44;;;;;;;2.88;1.70;;;17.70;64.40;;;;;;5084309;27;20919;-67
2022/05/12 00:21:10;;;;;;;4.50;1.70;;;17.60;64.90;;;;;;5089419;27;20501;-66
2022/05/12 00:23:37;;;;;;;4.25;2.00;;;17.60;65.60;;;;;;5079316;28;20895;-69
2022/05/12 00:26:05;;;;;;;3.92;1.80;;;17.50;65.70;;;;;;5080583;28;20470;-67
2022/05/12 00:28:32;;;;;;;6.18;2.70;;;17.50;65.80;;;;;;5092216;28;20444;-69
2022/05/12 00:30:59;;;;;;;2.47;1.70;;;17.40;66.00;;;;;;5088368;27;20546;-67
2022/05/12 00:33:27;;;;;;;3.60;1.70;;;17.40;66.30;;;;;;5081787;28;20539;-67
2022/05/12 00:35:55;;;;;;;3.83;2.10;;;17.30;66.60;;;;;;5085427;27;20428;-67
2022/05/12 00:38:22;;;;;;;3.63;1.60;;;17.20;66.70;;;;;;5081349;28;20428;-68
2022/05/12 00:40:49;;;;;;;3.25;1.80;;;17.20;66.70;;;;;;5088526;28;20481;-66
2022/05/12 00:43:42;;;;;;;2.80;1.60;;;17.10;67.20;;;;;;5092253;28;20428;-68
2022/05/12 00:46:11;;;;;;;3.05;1.50;;;17.00;67.30;;;;;;5093406;27;20493;-66
2022/05/12 00:48:39;;;;;;;3.70;1.60;;;16.90;67.50;;;;;;5090449;27;20433;-67
2022/05/12 00:51:08;;;;;;;5.60;1.60;;;16.80;68.00;;;;;;5082996;28;20451;-69
2022/05/12 00:53:36;;;;;;;4.95;1.60;;;16.70;68.10;;;;;;5083897;28;20424;-66
2022/05/12 00:56:04;;;;;;;3.87;1.63;;;16.60;68.20;;;;;;5086326;28;20575;-67
2022/05/12 00:58:34;;;;;;;4.53;1.98;;;16.50;68.70;;;;;;5085388;28;20459;-68
2022/05/12 01:01:04;;;;;;;3.30;1.50;;;16.40;69.30;;;;;;5088328;28;20465;-67
2022/05/12 01:03:32;;;;;;;5.22;1.80;;;16.40;69.40;;;;;;5085289;28;20486;-67
2022/05/12 01:05:59;;;;;;;3.90;1.70;;;16.40;69.20;;;;;;5084986;28;20494;-67
2022/05/12 01:08:26;;;;;;;4.00;1.88;;;16.40;69.00;;;;;;5090947;28;20434;-67
2022/05/12 01:10:57;;;;;;;4.63;1.60;;;16.40;69.20;;;;;;5081848;28;20532;-67
2022/05/12 01:13:24;;;;;;;3.80;1.83;;;16.40;69.10;;;;;;5091675;28;20432;-67
2022/05/12 01:15:52;;;;;;;3.53;1.70;;;16.40;69.20;;;;;;5085758;28;20931;-67
2022/05/12 01:18:22;;;;;;;4.68;1.60;;;16.40;69.30;;;;;;5127173;22;20434;-69
2022/05/12 01:20:50;;;;;;;2.35;2.15;;;16.40;69.50;;;;;;5124837;28;20426;-71
2022/05/12 01:23:23;;;;;;;3.67;1.90;;;16.30;69.80;;;;;;5146478;28;20432;-71
2022/05/12 01:25:51;;;;;;;4.70;2.05;;;16.30;69.80;;;;;;5140983;27;20481;-74
2022/05/12 01:28:17;;;;;;;4.40;1.83;;;16.30;70.00;;;;;;5124913;28;20510;-68
2022/05/12 01:30:44;;;;;;;3.57;2.17;;;16.30;70.10;;;;;;5100769;28;20507;-72
2022/05/12 01:33:11;;;;;;;5.07;2.00;;;16.30;70.30;;;;;;5100807;28;20425;-70
2022/05/12 01:35:38;;;;;;;3.90;1.85;;;16.30;70.20;;;;;;5097329;28;20429;-68
2022/05/12 01:38:05;;;;;;;4.95;1.90;;;16.40;70.10;;;;;;5097349;28;20477;-69
2022/05/12 01:40:33;;;;;;;5.40;2.22;;;16.40;69.90;;;;;;5098010;28;20457;-68
2022/05/12 01:43:00;;;;;;;3.42;2.20;;;16.40;70.00;;;;;;5098476;28;21055;-73
2022/05/12 01:45:27;;;;;;;3.75;2.45;;;16.40;69.90;;;;;;5100089;28;20485;-73
2022/05/12 01:47:54;;;;;;;3.55;2.70;;;16.50;70.30;;;;;;5104884;28;20430;-69
2022/05/12 01:50:21;;;;;;;3.72;3.03;;;16.50;69.20;;;;;;5105156;27;20489;-69
2022/05/12 01:52:49;;;;;;;3.17;2.40;;;16.50;69.00;;;;;;5105027;28;20424;-68
2022/05/12 01:55:18;;;;;;;4.22;2.80;;;16.60;69.20;;;;;;5105144;28;20846;-68
2022/05/12 01:57:47;;;;;;;3.00;2.72;;;16.50;69.10;;;;;;5103481;27;20485;-68
2022/05/12 02:00:17;;;;;;;3.97;2.90;;;16.40;69.40;;;;;;5106658;28;20428;-69
2022/05/12 02:02:44;;;;;;;5.03;3.15;;;16.40;69.60;;;;;;5102902;28;20493;-68
2022/05/12 02:05:12;;;;;;;4.95;2.90;;;16.30;69.00;;;;;;5102321;28;20428;-72
2022/05/12 02:07:39;;;;;;;5.97;3.10;;;16.30;68.50;;;;;;5102807;28;20424;-68
2022/05/12 02:10:08;;;;;;;3.92;3.17;;;16.20;68.20;;;;;;5103821;28;20428;-70
2022/05/12 02:12:34;;;;;;;5.15;2.90;;;16.10;67.50;;;;;;5101960;28;20428;-69
2022/05/12 02:15:02;;;;;;;5.17;3.20;;;16.10;67.60;;;;;;5104699;28;20428;-68
2022/05/12 02:17:29;;;;;;;4.90;2.95;;;16.20;67.20;;;;;;5103803;28;20435;-70
2022/05/12 02:19:56;;;;;;;4.65;3.10;;;16.20;67.10;;;;;;5103017;28;20432;-68
2022/05/12 02:22:23;;;;;;;3.78;2.83;;;16.30;66.50;;;;;;5102203;28;20428;-68
2022/05/12 02:24:49;;;;;;;3.40;2.90;;;16.30;66.60;;;;;;5104977;28;20497;-69
2022/05/12 02:27:16;;;;;;;4.72;3.08;;;16.20;67.00;;;;;;5103842;28;22369;-70
2022/05/12 02:29:42;;;;;;;6.00;3.40;;;16.10;67.20;;;;;;5101745;28;20420;-68
2022/05/12 02:32:10;;;;;;;5.03;3.75;;;16.10;68.70;;;;;;5103520;28;20428;-67
2022/05/12 02:34:37;;;;;;;5.00;3.75;;;16.20;67.10;;;;;;5105083;28;20427;-68
2022/05/12 02:37:05;;;;;;;4.03;3.50;;;16.10;67.10;;;;;;5103451;28;20474;-69
2022/05/12 02:39:35;;;;;;;4.20;3.80;;;15.90;67.90;;;;;;5101988;28;21001;-68
2022/05/12 02:42:02;;;;;;;5.72;3.40;;;15.90;68.30;;;;;;5117075;28;20497;-70
2022/05/12 02:44:29;;;;;;;4.70;3.60;;;15.90;67.90;;;;;;5118437;28;20990;-68
2022/05/12 02:46:55;;;;;;;4.20;3.50;;;15.90;67.50;;;;;;5100492;28;20424;-71
2022/05/12 02:49:24;;;;;;;5.10;3.80;;;15.80;67.90;;;;;;5100981;28;21517;-68
2022/05/12 02:51:51;;;;;;;3.70;3.30;;;15.80;68.30;;;;;;5105735;28;20424;-69
2022/05/12 02:54:19;;;;;;;6.22;3.50;;;15.70;68.40;;;;;;5100580;28;20514;-68
2022/05/12 02:56:46;;;;;;;4.82;3.80;;;15.70;68.10;;;;;;5105600;28;20426;-68
2022/05/12 02:59:13;;;;;;;5.53;4.20;;;15.60;67.70;;;;;;5099012;28;20470;-68
2022/05/12 03:01:40;;;;;;;5.05;3.80;;;15.30;69.20;;;;;;5101116;28;20435;-68
2022/05/12 03:04:08;;;;;;;5.50;4.30;;;15.20;69.70;;;;;;5104327;28;20871;-71
2022/05/12 03:06:37;;;;;;;5.88;4.03;;;15.20;70.00;;;;;;5101279;28;20432;-68
2022/05/12 03:09:05;;;;;;;4.50;4.10;;;15.10;70.40;;;;;;5098132;28;20427;-70
2022/05/12 03:11:32;;;;;;;4.45;4.05;;;15.00;70.70;;;;;;5097950;28;21047;-70
2022/05/12 03:13:59;;;;;;;5.90;4.30;;;14.90;71.00;;;;;;5098456;28;20498;-68
2022/05/12 03:16:26;;;;;;;5.88;4.55;;;14.90;71.00;;;;;;5100148;28;20424;-69
2022/05/12 03:18:53;;;;;;;5.07;4.57;;;14.90;71.20;;;;;;5104643;28;20504;-70
2022/05/12 03:21:21;;;;;;;6.07;5.00;;;14.80;71.60;;;;;;5100341;27;20428;-69
2022/05/12 03:23:49;;;;;;;7.27;5.13;;;14.60;72.20;;;;;;5097902;27;20424;-68
2022/05/12 03:26:17;;;;;;;6.72;4.28;;;14.60;72.90;;;;;;5096389;28;20488;-72
2022/05/12 03:28:43;;;;;;;6.00;5.00;;;14.50;73.20;;;;;;5106223;28;20429;-69
2022/05/12 03:31:10;;;;;;;7.40;5.60;;;14.50;73.30;;;;;;5106376;28;21204;-69
2022/05/12 03:33:37;;;;;;;5.95;4.53;;;14.40;73.50;;;;;;5108237;28;20460;-68
2022/05/12 03:36:06;;;;;;;5.23;4.83;;;14.40;74.10;;;;;;5105399;28;20424;-68
2022/05/12 03:38:32;;;;;;;6.50;4.80;;;14.50;74.20;;;;;;5105021;28;20428;-68
2022/05/12 03:41:00;;;;;;;5.32;4.70;;;14.50;73.80;;;;;;5103121;28;20430;-67
2022/05/12 03:46:13;;;;;;;5.60;4.40;;;14.50;73.20;;;;;;5100804;28;22553;-69
2022/05/12 03:48:41;;;;;;;5.03;4.40;;;14.50;72.70;;;;;;5102271;28;20434;-69
2022/05/12 03:51:09;;;;;;;6.53;4.57;;;14.50;73.00;;;;;;5102381;28;20428;-71
2022/05/12 03:53:37;;;;;;;7.00;5.03;;;14.40;72.60;;;;;;5096405;28;20766;-70
2022/05/12 03:56:06;;;;;;;4.80;4.30;;;14.40;72.10;;;;;;5101193;28;20489;-72
2022/05/12 03:58:33;;;;;;;5.85;4.57;;;14.40;72.90;;;;;;5103620;28;20428;-73
2022/05/12 04:01:00;;;;;;;5.07;4.05;;;14.30;72.80;;;;;;5098971;28;20435;-70
2022/05/12 04:03:27;;;;;;;5.22;4.40;;;14.30;73.10;;;;;;5096509;28;20434;-72
2022/05/12 04:05:55;;;;;;;6.63;4.35;;;14.30;72.70;;;;;;5099550;27;20497;-70
2022/05/12 04:08:22;;;;;;;5.95;4.50;;;14.20;71.60;;;;;;5097594;28;20447;-71
2022/05/12 04:10:49;;;;;;;5.93;4.22;;;14.10;72.50;;;;;;5098413;28;20432;-71
2022/05/12 04:13:17;;;;;;;6.95;4.40;;;14.00;73.50;;;;;;5098670;28;20435;-70
2022/05/12 04:15:44;;;;;;;4.50;4.10;;;14.10;72.30;;;;;;5097874;27;20915;-72
2022/05/12 04:18:11;;;;;;;4.67;3.80;;;14.00;72.80;;;;;;5098269;28;20484;-72
2022/05/12 04:20:38;;;;;;;5.10;3.80;;;14.00;72.60;;;;;;5098837;28;20425;-72
2022/05/12 04:23:05;;;;;;;4.07;3.40;;;14.00;72.60;;;;;;5096686;28;20908;-71
2022/05/12 04:25:33;;;;;;;4.60;4.20;;;14.00;72.50;;;;;;5100928;28;21075;-70
2022/05/12 04:27:59;;;;;;;4.57;3.95;;;14.00;72.70;;;;;;5106726;27;20426;-70
2022/05/12 04:30:28;;;;;;;6.43;4.43;;;14.00;71.50;;;;;;5103425;28;20432;-69
2022/05/12 04:35:09;;;;;;;8.05;4.53;;;13.80;73.30;;;;;;5103621;28;20572;-72
2022/05/12 04:35:41;;;;;;;7.32;4.18;;;13.70;73.30;;;;;;5102770;28;20494;-71
2022/05/12 04:38:08;;;;;;;6.70;4.43;;;13.80;73.00;;;;;;5103500;28;20428;-70
2022/05/12 04:40:34;;;;;;;5.43;4.40;;;13.80;73.00;;;;;;5104644;28;20924;-69
2022/05/12 04:43:01;;;;;;;4.93;4.30;;;13.70;72.50;;;;;;5104996;27;20434;-70
2022/05/12 04:45:32;;;;;;;5.40;4.90;;;13.80;73.30;;;;;;5108517;28;20457;-70
2022/05/12 04:47:59;;;;;;;6.65;5.30;;;13.70;73.60;;;;;;5104155;28;20424;-71
2022/05/12 04:50:28;;;;;;;6.05;5.28;;;13.70;74.20;;;;;;5096831;28;20482;-70
2022/05/12 04:52:55;;;;;;;8.50;5.25;;;13.70;73.90;;;;;;5096291;28;20505;-70
2022/05/12 04:55:22;;;;;;;5.15;4.55;;;13.70;74.50;;;;;;5103598;28;20476;-69
2022/05/12 04:57:50;;;;;;;5.82;4.90;;;13.70;75.30;;;;;;5101194;28;20436;-69
2022/05/12 05:00:26;;;;;;;6.00;4.63;;;13.80;73.90;;;;;;5102303;28;20428;-70
2022/05/12 05:02:55;;;;;;;7.00;5.05;;;13.80;74.20;;;;;;5104412;28;21037;-70
2022/05/12 05:05:22;;;;;;;6.03;4.43;;;13.80;74.50;;;;;;5104967;28;20414;-69
2022/05/12 05:07:49;;;;;;;5.63;4.00;;;13.90;74.60;;;;;;5099295;28;21734;-70
2022/05/12 05:10:16;;;;;;;7.00;5.00;;;13.90;73.70;;;;;;5097811;28;20424;-69
2022/05/12 05:12:44;;;;;;;5.00;4.18;;;14.00;73.00;;;;;;5103795;28;20428;-71
2022/05/12 05:15:12;;;;;;;5.47;4.30;;;13.90;71.60;;;;;;5102091;28;20427;-69
2022/05/12 05:17:40;;;;;;;6.97;4.45;;;13.80;71.50;;;;;;5104607;28;20911;-70
2022/05/12 05:20:12;;;;;;;5.40;4.20;;;13.70;71.90;;;;;;5105253;28;20435;-69
2022/05/12 05:22:38;;;;;;;4.50;3.95;;;13.80;72.00;;;;;;5101447;27;20477;-69
2022/05/12 05:25:06;;;;;;;8.15;4.10;;;13.70;71.80;;;;;;5110750;28;20435;-69
2022/05/12 05:27:33;;;;;;;7.18;4.68;;;13.70;71.90;;;;;;5107125;28;20958;-69
2022/05/12 05:30:00;;;;;;;6.22;4.70;;;13.70;72.10;;;;;;5109923;27;20481;-69
2022/05/12 05:32:28;;;;;;;8.60;5.10;;;13.70;72.40;;;;;;5111763;27;20476;-71
2022/05/12 05:34:55;;;;;;;8.50;5.57;;;13.70;72.30;;;;;;5110208;28;20511;-69
2022/05/12 05:37:23;;;;;;;5.77;4.80;;;13.70;72.50;;;;;;5104909;28;20455;-68
2022/05/12 05:39:50;;;;;;;8.45;4.63;;;13.80;72.40;;;;;;5109862;28;20423;-68
2022/05/12 05:42:19;;;;;;;6.70;4.60;;;13.80;71.90;;;;;;5111098;28;20515;-69
2022/05/12 05:44:46;;;;;;;7.37;4.97;;;13.80;71.30;;;;;;5109593;28;20452;-71
2022/05/12 05:47:12;;;;;;;7.07;4.90;;;13.80;71.00;;;;;;5107598;28;20453;-71
2022/05/12 05:49:41;;;;;;;7.55;5.25;;;13.80;71.50;;;;;;5113659;27;20491;-68
2022/05/12 05:54:54;;;;;;;8.85;4.60;;;14.00;69.90;;;;;;5109634;28;20473;-70
2022/05/12 05:57:26;;;;;;;6.10;4.38;;;14.10;69.00;;;;;;5111115;28;20437;-70
2022/05/12 05:59:53;;;;;;;5.67;3.83;;;14.20;68.20;;;;;;5112123;28;20461;-71
2022/05/12 06:02:20;;;;;;;8.00;4.25;;;14.20;67.30;;;;;;5111795;28;20427;-70
2022/05/12 06:04:47;;;;;;;6.35;3.83;;;14.20;67.50;;;;;;5113931;28;20464;-71
2022/05/12 06:07:14;;;;;;;4.05;3.00;;;14.20;67.30;;;;;;5120425;28;20416;-71
2022/05/12 06:09:41;;;;;;;5.53;3.40;;;14.20;66.30;;;;;;5127261;28;20425;-73
2022/05/12 06:12:10;;;;;;;6.85;3.10;;;14.30;66.50;;;;;;5133889;28;20899;-77
2022/05/12 06:14:37;;;;;;;5.37;3.17;;;14.40;66.80;;;;;;5131009;28;20538;-73
2022/05/12 06:17:04;;;;;;;4.30;2.90;;;14.50;64.80;;;;;;5115338;28;20430;-74
2022/05/12 06:19:31;;;;;;;4.85;3.20;;;14.70;63.90;;;;;;5109881;28;20428;-75
2022/05/12 06:21:58;;;;;;;5.38;2.30;;;14.80;63.70;;;;;;5110620;28;20420;-73
2022/05/12 06:24:25;;;;;;;5.27;3.13;;;15.00;64.60;;;;;;5108315;27;20436;-76
2022/05/12 06:26:52;;;;;;;6.57;3.63;;;15.20;63.50;;;;;;5108084;28;20508;-74
2022/05/12 06:29:20;;;;;;;3.83;2.70;;;15.30;61.80;;;;;;5105584;28;20451;-74
2022/05/12 06:31:48;;;;;;;3.80;2.47;;;15.50;62.20;;;;;;5109657;28;20939;-74
2022/05/12 06:34:15;;;;;;;5.80;2.63;;;15.60;59.50;;;;;;5111969;28;20469;-75
2022/05/12 06:36:43;;;;;;;3.90;2.30;;;15.70;57.90;;;;;;5111468;28;20424;-76
2022/05/12 06:39:10;;;;;;;5.70;2.30;;;15.70;58.50;;;;;;5110509;28;20893;-76
2022/05/12 06:41:37;;;;;;;5.45;2.63;;;15.80;58.50;;;;;;5111483;28;20407;-74
2022/05/12 06:44:04;;;;;;;5.13;2.30;;;15.90;57.60;;;;;;5108126;28;20420;-75
2022/05/12 06:46:33;;;;;;;3.83;1.90;;;15.90;57.60;;;;;;5107836;28;20420;-73
2022/05/12 06:49:02;;;;;;;4.30;2.38;;;16.00;57.00;;;;;;5120199;28;20428;-75
2022/05/12 06:51:28;;;;;;;3.85;2.60;;;15.90;56.70;;;;;;5117234;28;20460;-74
2022/05/12 06:53:56;;;;;;;3.10;2.10;;;16.00;56.80;;;;;;5108046;28;20434;-74
2022/05/12 06:56:23;;;;;;;3.63;2.00;;;16.10;55.60;;;;;;5109836;28;20853;-73
2022/05/12 06:58:50;;;;;;;4.60;2.10;;;16.00;55.80;;;;;;5111019;28;20432;-73
2022/05/12 07:01:17;;;;;;;4.68;2.30;;;16.00;56.60;;;;;;5103998;28;21003;-76
2022/05/12 07:03:45;;;;;;;3.03;2.00;;;16.10;56.40;;;;;;5105029;28;20432;-75
2022/05/12 07:06:12;;;;;;;3.70;1.90;;;16.30;54.60;;;;;;5111911;27;20428;-74
2022/05/12 07:08:41;;;;;;;3.10;2.10;;;16.50;54.60;;;;;;5119461;28;20428;-75
2022/05/12 07:11:08;;;;;;;3.17;2.10;;;16.60;53.00;;;;;;5134462;28;20404;-75
2022/05/12 07:13:35;;;;;;;3.00;1.90;;;16.70;53.30;;;;;;5131928;28;20404;-74
2022/05/12 07:16:05;;;;;;;4.05;2.00;;;16.70;53.40;;;;;;5135876;28;20389;-75
2022/05/12 07:18:35;;;;;;;3.92;2.22;;;17.00;54.50;;;;;;5132923;28;20424;-75
2022/05/12 07:26:40;;;;;;;5.45;2.17;;;17.70;51.70;;;;;;5107303;28;20439;-72
2022/05/12 07:29:10;;;;;;;3.78;2.47;;;18.10;51.00;;;;;;5107372;28;20436;-72
2022/05/12 07:31:37;;;;;;;4.65;2.20;;;18.40;51.10;;;;;;5104806;28;20518;-72
2022/05/12 07:34:04;;;;;;;4.22;2.35;;;18.30;49.00;;;;;;5115789;28;20850;-72
2022/05/12 07:36:34;;;;;;;4.50;2.60;;;18.10;49.10;;;;;;5114979;27;20428;-73
2022/05/12 07:39:01;;;;;;;4.10;2.30;;;17.60;50.40;;;;;;5123891;27;20482;-74
2022/05/12 07:41:29;;;;;;;4.90;2.50;;;17.50;51.80;;;;;;5127094;27;20412;-73
2022/05/12 07:43:56;;;;;;;4.82;2.67;;;17.80;51.90;;;;;;5116867;28;20426;-73
2022/05/12 07:46:27;;;;;;;4.00;2.87;;;18.00;51.70;;;;;;5118186;28;20427;-73
2022/05/12 07:48:55;;;;;;;5.47;3.17;;;18.20;51.20;;;;;;5120132;28;20428;-73
2022/05/12 07:51:22;;;;;;;3.90;3.05;;;18.50;50.80;;;;;;5115190;28;20973;-72
2022/05/12 07:53:51;;;;;;;5.68;2.67;;;18.40;49.70;;;;;;5109690;28;20424;-71
2022/05/12 07:56:20;;;;;;;4.90;2.70;;;18.00;51.10;;;;;;5110407;28;20905;-72
2022/05/12 07:58:47;;;;;;;4.38;2.67;;;17.70;51.20;;;;;;5107619;28;20432;-73
2022/05/12 08:01:15;;;;;;;5.07;2.95;;;17.50;53.00;;;;;;5106567;28;20486;-73
2022/05/12 08:03:42;;;;;;;5.72;3.33;;;17.70;52.10;;;;;;5111764;28;20431;-72
2022/05/12 08:06:08;;;;;;;5.90;3.58;;;18.00;51.40;;;;;;5105612;28;20431;-75
2022/05/12 08:08:36;;;;;;;7.60;3.80;;;17.90;51.60;;;;;;5100804;28;20493;-74
2022/05/12 08:11:06;;;;;;;3.67;3.27;;;17.60;52.50;;;;;;5102531;28;20515;-80
2022/05/12 08:13:33;;;;;;;4.13;3.10;;;17.80;52.50;;;;;;5096562;27;20521;-78
2022/05/12 08:16:02;;;;;;;5.63;3.23;;;18.00;51.50;;;;;;5101867;28;20428;-77
2022/05/12 08:18:32;;;;;;;5.43;2.70;;;18.20;50.70;;;;;;5101018;28;20456;-78
2022/05/12 08:20:59;;;;;;;4.70;3.40;;;18.70;50.20;;;;;;5100340;28;20445;-77
2022/05/12 08:23:26;;;;;;;4.70;3.15;;;19.00;47.10;;;;;;5099342;28;20424;-66
2022/05/12 08:25:53;;;;;;;4.10;3.70;;;19.00;47.30;;;;;;5097313;28;20432;-68
2022/05/12 08:28:24;;;;;;;5.57;3.58;;;18.30;49.30;;;;;;5105669;28;20424;-71
2022/05/12 08:30:51;;;;;;;4.45;3.40;;;18.20;51.60;;;;;;5109025;28;20424;-72
2022/05/12 08:33:19;;;;;;;5.47;3.58;;;18.40;49.60;;;;;;5104175;28;20457;-73
2022/05/12 08:35:46;;;;;;;6.22;4.13;;;18.90;50.20;;;;;;5108556;28;20481;-67
2022/05/12 08:38:14;;;;;;;5.88;3.90;;;19.70;47.00;;;;;;5106166;28;20485;-73
2022/05/12 08:40:49;;;;;;;5.60;4.50;;;20.20;47.10;;;;;;5104757;28;20851;-73
2022/05/12 08:43:18;;;;;;;6.47;4.68;;;20.40;45.10;;;;;;5103478;28;20480;-73
2022/05/12 08:45:48;;;;;;;6.03;5.03;;;20.00;46.80;;;;;;5098867;28;21126;-75
2022/05/12 08:48:16;;;;;;;6.05;5.05;;;19.60;46.60;;;;;;5102094;28;20923;-75
2022/05/12 08:50:44;;;;;;;4.68;4.28;;;18.80;49.10;;;;;;5099809;28;20427;-75
2022/05/12 08:53:15;;;;;;;6.15;4.68;;;18.60;49.70;;;;;;5117608;28;20424;-74
2022/05/12 08:55:47;;;;;;;6.82;5.20;;;18.50;51.90;;;;;;5109557;28;20794;-74
2022/05/12 08:58:21;;;;;;;6.00;5.50;;;18.60;50.20;;;;;;5104557;28;20799;-75
2022/05/12 09:00:59;;;;;;;5.70;5.20;;;18.80;49.50;;;;;;5108098;28;20416;-75
2022/05/12 09:03:46;;;;;;;4.50;3.65;;;19.10;49.70;;;;;;5099250;28;21406;-74
2022/05/12 09:06:18;;;;;;;5.15;3.70;;;19.50;44.70;;;;;;5094705;28;20447;-75
2022/05/12 09:08:52;;;;;;;5.72;3.55;;;19.70;46.20;;;;;;5105400;28;20420;-74
2022/05/12 09:11:23;;;;;;;4.45;3.40;;;20.40;45.10;;;;;;5102141;28;20435;-75
2022/05/12 09:13:53;;;;;;;5.88;3.53;;;20.80;43.30;;;;;;5105796;28;20489;-76
2022/05/12 09:16:25;;;;;;;5.88;3.70;;;20.90;41.90;;;;;;5107204;28;20921;-73
2022/05/12 09:18:53;;;;;;;6.15;3.20;;;20.30;42.10;;;;;;5108520;28;20412;-74
2022/05/12 09:21:24;;;;;;;4.72;3.00;;;20.00;44.00;;;;;;5104827;28;20489;-74
2022/05/12 09:23:51;;;;;;;4.03;2.80;;;20.40;40.80;;;;;;5105385;28;20477;-73
2022/05/12 09:26:38;;;;;;;3.65;2.40;;;20.40;40.10;;;;;;5105434;28;20424;-73
2022/05/12 09:29:16;;;;;;;4.30;1.80;;;20.10;40.00;;;;;;5105577;28;20432;-74
2022/05/12 09:31:47;;;;;;;3.50;2.50;;;20.20;39.70;;;;;;5107412;28;20501;-74
2022/05/12 09:34:24;;;;;;;3.35;2.25;;;20.40;39.60;;;;;;5100614;28;21011;-74
2022/05/12 09:36:51;;;;;;;3.50;2.60;;;20.40;40.30;;;;;;5103689;28;20431;-74
2022/05/12 09:39:36;;;;;;;3.00;2.80;;;20.50;39.90;;;;;;5101396;28;20482;-75
2022/05/12 09:42:06;;;;;;;3.58;2.67;;;20.70;40.20;;;;;;5098612;28;20939;-74
2022/05/12 09:44:34;;;;;;;4.47;2.70;;;20.70;38.60;;;;;;5102491;28;20477;-74
2022/05/12 09:47:07;;;;;;;3.50;2.30;;;20.30;40.20;;;;;;5099621;28;21012;-74
2022/05/12 09:49:38;;;;;;;4.00;2.50;;;20.30;40.70;;;;;;5104009;28;20445;-75
2022/05/12 09:52:29;;;;;;;3.13;2.20;;;20.70;39.40;;;;;;5102107;28;20424;-75
2022/05/12 09:55:17;;;;;;;5.38;2.50;;;21.20;39.10;;;;;;5099627;28;20503;-74
2022/05/12 09:57:48;;;;;;;3.55;2.30;;;21.50;37.60;;;;;;5107212;28;20426;-75
2022/05/12 10:00:38;;;;;;;4.38;2.10;;;21.30;37.90;;;;;;5103723;28;20950;-78
2022/05/12 10:09:00;;;;;;;3.40;2.55;;;20.40;41.20;;;;;;5107999;27;20464;-76
2022/05/12 10:11:28;;;;;;;3.20;2.50;;;20.90;38.20;;;;;;5109095;28;20459;-75
2022/05/12 10:14:00;;;;;;;3.00;2.03;;;21.20;39.40;;;;;;5103574;28;20424;-76
2022/05/12 10:16:31;;;;;;;3.10;1.92;;;22.00;38.50;;;;;;5109268;27;20432;-76
2022/05/12 10:19:04;;;;;;;3.55;1.98;;;22.90;35.50;;;;;;5111129;27;20424;-76
2022/05/12 10:21:39;;;;;;;3.72;2.00;;;22.90;34.40;;;;;;5110505;28;20477;-76
2022/05/12 10:24:14;;;;;;;3.10;2.00;;;22.50;35.90;;;;;;5109662;28;21239;-76
2022/05/12 10:26:46;;;;;;;3.40;2.10;;;22.20;35.80;;;;;;5108640;28;20848;-76
2022/05/12 10:29:26;;;;;;;3.08;1.90;;;21.70;35.80;;;;;;5108631;22;20537;-68
2022/05/12 10:32:02;;;;;;;5.03;2.80;;;21.30;37.30;;;;;;5077959;28;20529;-65
2022/05/12 10:34:42;;;;;;;4.57;2.10;;;20.90;37.00;;;;;;5068437;28;20854;-65
2022/05/12 10:37:29;;;;;;;4.10;2.42;;;20.70;39.00;;;;;;5073660;28;20449;-68
2022/05/12 10:40:04;;;;;;;3.00;2.40;;;20.90;39.30;;;;;;5078610;28;20422;-69
2022/05/12 10:42:42;;;;;;;4.47;2.67;;;21.10;39.40;;;;;;5083912;28;20491;-70
2022/05/12 10:45:19;;;;;;;3.20;2.30;;;21.50;35.40;;;;;;5082443;28;20434;-69
2022/05/12 10:47:58;;;;;;;3.00;2.00;;;21.80;35.00;;;;;;5075891;28;20459;-68
2022/05/12 10:50:31;;;;;;;3.00;2.13;;;22.30;34.40;;;;;;5070232;28;20505;-69
2022/05/12 10:53:05;;;;;;;3.58;2.22;;;22.70;32.50;;;;;;5076981;28;20442;-68
2022/05/12 10:55:40;;;;;;;3.40;1.90;;;23.00;34.10;;;;;;5077059;28;20475;-69
2022/05/12 10:58:21;;;;;;;3.28;1.80;;;23.70;32.20;;;;;;5078691;28;20994;-69
2022/05/12 11:01:04;;;;;;;3.53;1.92;;;23.90;30.40;;;;;;5078378;28;21053;-68
2022/05/12 11:03:36;;;;;;;3.38;1.70;;;23.50;31.80;;;;;;5077438;28;20494;-69
2022/05/12 11:06:06;;;;;;;4.63;2.00;;;23.10;33.10;;;;;;5080218;28;20874;-69
2022/05/12 11:08:37;;;;;;;3.85;2.40;;;22.40;33.90;;;;;;5081509;28;20574;-69
2022/05/12 11:11:09;;;;;;;2.97;1.90;;;22.00;35.40;;;;;;5080077;28;20599;-70
2022/05/12 11:13:40;;;;;;;3.03;2.00;;;21.30;36.80;;;;;;5077122;28;21536;-70
2022/05/12 11:16:11;;;;;;;4.35;2.10;;;21.10;37.60;;;;;;5081085;28;20418;-71
2022/05/12 11:18:44;;;;;;;2.95;1.70;;;21.30;36.70;;;;;;5082362;28;20449;-71
2022/05/12 11:21:17;;;;;;;3.17;2.00;;;21.70;36.50;;;;;;5083590;28;20450;-75
2022/05/12 11:24:22;;;;;;;3.85;2.25;;;21.90;35.90;;;;;;5079536;28;20793;-70
2022/05/12 11:27:03;;;;;;;11.07;6.25;;;22.10;37.20;;;;;;4979104;28;20944;-70
2022/05/12 11:29:48;;;;;;;4.68;2.47;;;22.40;36.10;;;;;;5069137;28;20513;-70
2022/05/12 11:32:27;;;;;;;3.40;2.40;;;23.10;32.70;;;;;;5078720;28;20441;-71
2022/05/12 11:34:57;;;;;;;3.20;1.80;;;23.50;33.00;;;;;;5071631;28;20527;-69
2022/05/12 11:37:32;;;;;;;3.75;2.00;;;23.40;32.00;;;;;;5076969;28;20508;-66
2022/05/12 11:40:01;;;;;;;3.13;2.15;;;23.60;32.50;;;;;;5081782;28;20473;-65
2022/05/12 11:42:28;;;;;;;3.60;2.08;;;24.10;32.00;;;;;;5078191;28;20483;-70
2022/05/12 11:44:58;;;;;;;3.10;1.80;;;24.20;31.30;;;;;;5073301;28;20430;-67
2022/05/12 11:47:48;;;;;;;3.63;2.42;;;23.90;30.10;;;;;;5079351;28;20500;-67
2022/05/12 11:50:56;;;;;;;5.18;3.17;;;23.80;32.40;;;;;;5080906;28;20462;-68
2022/05/12 11:53:27;;;;;;;3.57;2.10;;;24.40;33.40;;;;;;5062227;28;20459;-70
2022/05/12 11:56:03;;;;;;;4.70;1.80;;;24.80;30.90;;;;;;5081757;28;20505;-71
2022/05/12 11:58:34;;;;;;;1.90;1.70;;;24.60;29.60;;;;;;5079589;28;20441;-68
2022/05/12 12:01:05;;;;;;;3.03;1.80;;;24.10;32.00;;;;;;5080083;28;20848;-70
2022/05/12 12:03:49;;;;;;;2.85;1.60;;;24.10;30.80;;;;;;5078893;28;20421;-68
2022/05/12 12:06:48;;;;;;;3.22;1.50;;;24.20;29.90;;;;;;5072080;28;20427;-69
2022/05/12 12:09:52;;;;;;;6.57;1.90;;;24.30;29.30;;;;;;5081291;28;21048;-66
2022/05/12 12:12:51;;;;;;;2.53;1.60;;;24.10;31.10;;;;;;5075345;28;20902;-67
2022/05/12 12:16:05;;;;;;;3.50;1.98;;;24.10;29.30;;;;;;5079542;28;20483;-68
2022/05/12 12:19:03;;;;;;;4.03;1.50;;;23.80;32.30;;;;;;5076564;28;20434;-68
2022/05/12 12:21:53;;;;;;;4.43;1.73;;;24.10;31.70;;;;;;5075683;28;20425;-69
2022/05/12 12:24:43;;;;;;;2.63;1.60;;;24.50;30.40;;;;;;5069578;28;20782;-67
2022/05/12 12:28:10;;;;;;;3.90;1.60;;;24.70;30.60;;;;;;5071022;28;20927;-67
2022/05/12 12:30:59;;;;;;;4.18;1.70;;;25.20;30.50;;;;;;5068390;28;20554;-67
2022/05/12 12:33:59;;;;;;;2.35;1.70;;;25.30;29.50;;;;;;5076165;28;20429;-68
2022/05/12 12:36:58;;;;;;;4.47;2.00;;;24.80;29.20;;;;;;5075724;28;20539;-67
2022/05/12 12:39:41;;;;;;;3.70;1.80;;;24.40;30.60;;;;;;5074045;28;20472;-68
2022/05/12 12:42:22;;;;;;;2.33;1.50;;;24.70;31.60;;;;;;5077907;28;20474;-68
2022/05/12 12:44:53;;;;;;;3.47;2.10;;;25.20;31.00;;;;;;5075297;28;20462;-67
2022/05/12 12:47:39;;;;;;;3.78;2.10;;;25.20;28.40;;;;;;5077812;28;20830;-68
2022/05/12 12:50:23;;;;;;;3.40;2.30;;;24.40;29.60;;;;;;5076337;28;20879;-69
2022/05/12 12:52:56;;;;;;;4.85;2.40;;;23.40;30.90;;;;;;5078189;28;20945;-70
2022/05/12 12:58:14;;;;;;;4.00;1.90;;;24.00;32.60;;;;;;5071841;28;20528;-68
2022/05/12 13:00:40;;;;;;;2.67;1.80;;;24.60;32.80;;;;;;5074850;28;20486;-69
2022/05/12 13:03:17;;;;;;;2.67;1.73;;;25.10;32.00;;;;;;5072718;28;20523;-70
2022/05/12 13:05:44;;;;;;;3.20;2.00;;;25.50;29.90;;;;;;5075033;28;20510;-67
2022/05/12 13:08:22;;;;;;;2.13;1.90;;;25.60;29.90;;;;;;5073577;28;20437;-68
2022/05/12 13:10:50;;;;;;;2.75;1.70;;;25.60;28.70;;;;;;5077429;28;20933;-68
2022/05/12 13:13:17;;;;;;;3.60;2.25;;;25.60;29.90;;;;;;5076791;28;20503;-69
2022/05/12 13:15:46;;;;;;;3.83;1.70;;;25.70;29.40;;;;;;5068506;28;20441;-68
2022/05/12 13:18:22;;;;;;;4.10;1.93;;;25.60;29.70;;;;;;5072260;28;20437;-69
2022/05/12 13:20:51;;;;;;;2.95;1.80;;;25.80;29.50;;;;;;5070133;28;20429;-69
2022/05/12 13:23:23;;;;;;;4.03;1.90;;;25.90;29.30;;;;;;5068337;28;20769;-68
2022/05/12 13:25:52;;;;;;;2.33;1.80;;;25.90;28.50;;;;;;5081360;28;20425;-67
2022/05/12 13:28:22;;;;;;;2.53;2.03;;;25.90;29.50;;;;;;5081425;28;20456;-67